Farmington, NM (87401)

4:11 AM MST on February 01, 2015 (GMT -0700)
Butler and 23rd Street | Change Station
CLOSE
Current Station
Personal Weather Station
Location: Farmington, NM
Elevation: 5500 ft
Nearby Weather Stations

Elev 5500 ft 36.75 °N, 108.20 °W | Updated 1 second ago

Light Freezing Fog
Freezing Fog
27.0 °F
Feels Like 27 °F
N
0.0
Wind Variable Wind from West
Gusts 5.0 mph

Today
High -- | Low -- °F
--% Chance of Precip.
Yesterday
High -- | Low -- °F
Precip. -- in
7:14 AM 5:38 PM
Waxing Gibbous, 94% visible
Pressure 30.05 in
Visibility 0.2 miles
Clouds
Windchill 27 °F
Dew Point 27 °F
Humidity 100%
Rainfall 0.00 in
Snow Depth Not available.
UV Not available.
Pollen .20 out of 12
Air Quality Not available.
Flu Activity Not available.
METAR KFMN 011053Z AUTO 04003KT 1/4SM FZFG VV001 M03/M03 A3001 RMK AO2 SLP176 T10281033

More Conditions Fewer Conditions

Pressure 30.05 in
Visibility 0.2 miles
Clouds
Windchill 27 °F
Dew Point 27 °F
Humidity 100%
Rainfall 0.00 in
Snow Depth Not available.
UV Not available.
Pollen .20 out of 12
Air Quality Not available.
Flu Activity Not available.
METAR KFMN 011053Z AUTO 04003KT 1/4SM FZFG VV001 M03/M03 A3001 RMK AO2 SLP176 T10281033

More Conditions Fewer Conditions

Nowcast | as of 2:07 am MST on February 1, 2015

Areas of low clouds and fog will continue over western New Mexico overnight. With temperatures dropping below freezing...moisture on Road surfaces will result in some patches of black ice. Higher elevation secondary roads will retain areas of snow and ice cover. Also...fog may become locally dense and reduce visibilities to a mile or less at times. For the latest Road conditions visit N M roads dot com or dial 5 1 1.

×

10-Day Weather Forecast

Almanac

Astronomy

Feb. 01, 2015 Rise Set
Actual Time
Civil Twilight
Nautical Twilight
Astronomical Twilight
Moon
Length of Visible Light
Length of Day
Tomorrow will be .
, % of the Moon is Illuminated

Today's Extremes

State Highs State Lows

Community

WunderPhotos

Upload Photos

1,792,345 photos uploaded!

WunderBlogs® & News

Nearby

Air Quality

  Air Quality AQ Index Pollutant
Not available.

Snow Depth

Station Depth Elevation

Earthquake Activity

City Distance Mag. Time & Date
Minimum magnitude displayed is 2.5.

Coastal Water Temperatures

Place Temperature

Nearby Weather Stations